createdAt,value
2022-12-04T00:01:39.879Z,74.80
2022-12-04T00:04:07.289Z,74.80
2022-12-04T00:06:34.656Z,74.80
2022-12-04T00:09:02.639Z,75.00
2022-12-04T00:11:31.260Z,75.00
2022-12-04T00:14:06.137Z,74.90
2022-12-04T00:16:35.886Z,74.80
2022-12-04T00:19:03.743Z,75.00
2022-12-04T00:21:31.075Z,75.20
2022-12-04T00:23:58.457Z,75.30
2022-12-04T00:26:28.553Z,75.30
2022-12-04T00:28:56.181Z,75.30
2022-12-04T00:31:25.795Z,75.30
2022-12-04T00:33:54.478Z,75.40
2022-12-04T00:36:24.287Z,75.20
2022-12-04T00:38:51.622Z,75.10
2022-12-04T00:41:22.524Z,75.20
2022-12-04T00:43:50.034Z,75.20
2022-12-04T00:46:17.802Z,75.40
2022-12-04T00:48:45.962Z,75.40
2022-12-04T00:51:18.066Z,75.40
2022-12-04T00:53:45.924Z,75.50
2022-12-04T00:56:15.015Z,75.40
2022-12-04T00:58:42.406Z,75.50
2022-12-04T01:01:11.394Z,75.60
2022-12-04T01:03:39.446Z,75.50
2022-12-04T01:06:07.477Z,75.60
2022-12-04T01:08:36.049Z,75.90
2022-12-04T01:11:06.209Z,76.10
2022-12-04T01:13:33.479Z,75.80
2022-12-04T01:16:00.787Z,75.70
2022-12-04T01:18:28.054Z,75.70
2022-12-04T01:20:55.365Z,76.00
2022-12-04T01:23:22.654Z,75.80
2022-12-04T01:25:53.199Z,75.80
2022-12-04T01:28:20.748Z,75.50
2022-12-04T01:30:58.281Z,75.60
2022-12-04T01:33:25.610Z,75.60
2022-12-04T01:35:53.644Z,75.60
2022-12-04T01:38:21.307Z,75.40
2022-12-04T01:40:48.820Z,75.50
2022-12-04T01:43:18.403Z,76.00
2022-12-04T01:45:47.601Z,75.80
2022-12-04T01:48:21.572Z,76.00
2022-12-04T01:50:51.858Z,76.00
2022-12-04T01:53:20.098Z,76.00
2022-12-04T01:55:48.376Z,76.40
2022-12-04T01:58:21.609Z,76.30
2022-12-04T02:00:58.181Z,76.30
2022-12-04T02:03:25.830Z,76.30
2022-12-04T02:05:53.114Z,76.10
2022-12-04T02:08:20.534Z,76.40
2022-12-04T02:10:55.521Z,76.30
2022-12-04T02:13:31.088Z,76.50
2022-12-04T02:16:05.217Z,76.60
2022-12-04T02:18:41.191Z,76.70
2022-12-04T02:21:13.831Z,76.60
2022-12-04T02:24:14.556Z,76.90
2022-12-04T02:26:48.991Z,76.80
2022-12-04T02:29:32.504Z,77.10
2022-12-04T02:32:06.691Z,77.10
2022-12-04T02:34:43.681Z,77.10
2022-12-04T02:37:15.954Z,77.10
2022-12-04T02:39:49.517Z,77.20
2022-12-04T02:42:21.470Z,77.10
2022-12-04T02:44:55.999Z,77.30
2022-12-04T02:47:25.382Z,77.20
2022-12-04T02:49:56.571Z,77.00
2022-12-04T02:52:28.924Z,76.90
2022-12-04T02:55:06.767Z,76.80
2022-12-04T02:57:41.476Z,77.00
2022-12-04T03:00:11.299Z,76.90
2022-12-04T03:02:43.383Z,76.90
2022-12-04T03:05:15.494Z,77.00
2022-12-04T03:07:47.399Z,77.10
2022-12-04T03:10:19.153Z,77.20
2022-12-04T03:12:52.141Z,77.40
2022-12-04T03:15:26.501Z,77.50
2022-12-04T03:17:58.455Z,77.80
2022-12-04T03:20:26.196Z,77.70
2022-12-04T03:22:58.209Z,77.40
2022-12-04T03:25:32.030Z,77.50
2022-12-04T03:28:03.937Z,77.70
2022-12-04T03:30:39.232Z,77.40
2022-12-04T03:33:12.198Z,77.70
2022-12-04T03:35:44.006Z,77.70
2022-12-04T03:38:17.529Z,77.70
2022-12-04T03:40:51.716Z,77.40
2022-12-04T03:43:24.608Z,77.20
2022-12-04T03:45:57.980Z,77.10
2022-12-04T03:48:29.686Z,77.50
2022-12-04T03:51:02.391Z,77.40
2022-12-04T03:53:34.350Z,77.50
2022-12-04T03:56:07.086Z,77.40
2022-12-04T03:58:36.525Z,77.30
2022-12-04T04:01:09.192Z,77.20
2022-12-04T04:03:41.694Z,77.60
2022-12-04T04:06:14.144Z,77.70
2022-12-04T04:08:45.710Z,77.50
2022-12-04T04:11:18.520Z,77.50
2022-12-04T04:14:11.690Z,77.50
2022-12-04T04:17:04.232Z,77.60
2022-12-04T04:19:53.742Z,77.80
2022-12-04T04:22:43.495Z,77.80
2022-12-04T04:25:14.282Z,78.00
2022-12-04T04:27:41.773Z,77.70
2022-12-04T04:30:09.954Z,77.40
2022-12-04T04:32:45.157Z,77.40
2022-12-04T04:35:19.078Z,77.20
2022-12-04T04:37:55.494Z,77.40
2022-12-04T04:40:30.287Z,77.20
2022-12-04T04:43:05.216Z,77.20
2022-12-04T04:45:36.561Z,77.10
2022-12-04T04:48:08.848Z,77.30
2022-12-04T04:50:37.440Z,77.20
2022-12-04T04:53:09.501Z,77.00
2022-12-04T04:55:37.285Z,77.20
2022-12-04T04:58:09.557Z,76.90
2022-12-04T05:00:37.957Z,77.10
2022-12-04T05:03:07.032Z,77.10
2022-12-04T05:05:34.426Z,77.20
2022-12-04T05:08:01.860Z,77.20
2022-12-04T05:10:29.140Z,77.30
2022-12-04T05:12:56.407Z,77.70
2022-12-04T05:15:23.714Z,77.60
2022-12-04T05:17:50.972Z,77.70
2022-12-04T05:20:19.558Z,77.60
2022-12-04T05:22:46.820Z,77.70
2022-12-04T05:25:14.170Z,77.40
2022-12-04T05:27:41.515Z,77.10
2022-12-04T05:30:11.662Z,77.20
2022-12-04T05:32:39.172Z,77.40
2022-12-04T05:35:10.951Z,77.50
2022-12-04T05:37:40.905Z,77.40
2022-12-04T05:40:09.465Z,77.70
2022-12-04T05:42:36.783Z,77.70
2022-12-04T05:45:04.757Z,77.50
2022-12-04T05:47:32.073Z,77.50
2022-12-04T05:49:59.432Z,77.50
2022-12-04T05:52:26.710Z,77.30
2022-12-04T05:54:55.267Z,77.60
2022-12-04T05:57:25.414Z,77.30
2022-12-04T05:59:53.324Z,77.10
2022-12-04T06:02:20.920Z,77.40
2022-12-04T06:04:48.328Z,77.40
2022-12-04T06:07:15.603Z,77.30
2022-12-04T06:09:42.856Z,77.20
2022-12-04T06:12:11.427Z,77.30
2022-12-04T06:14:39.944Z,77.20
2022-12-04T06:17:07.520Z,77.30
2022-12-04T06:19:34.786Z,77.40
2022-12-04T06:22:02.057Z,77.40
2022-12-04T06:24:29.315Z,77.50
2022-12-04T06:27:26.735Z,77.50
2022-12-04T06:29:46.598Z,77.50
2022-12-04T06:32:17.949Z,77.50
2022-12-04T06:34:49.303Z,77.30
2022-12-04T06:37:16.626Z,77.50
2022-12-04T06:39:44.018Z,77.30
2022-12-04T06:42:11.250Z,77.40
2022-12-04T06:44:38.599Z,77.50
2022-12-04T06:47:07.971Z,77.40
2022-12-04T06:49:36.139Z,77.40
2022-12-04T06:52:03.485Z,77.50
2022-12-04T06:54:30.807Z,77.40
2022-12-04T06:56:58.489Z,77.20
2022-12-04T06:59:26.003Z,77.40
2022-12-04T07:01:53.331Z,77.40
2022-12-04T07:04:21.951Z,77.40
2022-12-04T07:06:49.246Z,77.50
2022-12-04T07:09:17.902Z,77.70
2022-12-04T07:11:45.941Z,77.60
2022-12-04T07:14:13.861Z,77.50
2022-12-04T07:16:42.659Z,77.50
2022-12-04T07:19:11.100Z,77.70
2022-12-04T07:21:40.144Z,77.70
2022-12-04T07:24:07.962Z,77.90
2022-12-04T07:26:35.467Z,77.80
2022-12-04T07:29:02.781Z,77.70
2022-12-04T07:31:30.473Z,77.70
2022-12-04T07:33:58.562Z,77.60
2022-12-04T07:36:27.016Z,77.80
2022-12-04T07:38:56.895Z,77.90
2022-12-04T07:41:24.811Z,78.00
2022-12-04T07:43:53.328Z,78.20
2022-12-04T07:46:23.304Z,78.10
2022-12-04T07:48:50.707Z,78.10
2022-12-04T07:51:20.354Z,78.20
2022-12-04T07:53:48.213Z,78.30
2022-12-04T07:56:17.665Z,78.30
2022-12-04T07:58:45.844Z,78.40
2022-12-04T08:01:15.688Z,78.50
2022-12-04T08:03:48.209Z,78.20
2022-12-04T08:06:17.786Z,78.40
2022-12-04T08:08:45.355Z,78.50
2022-12-04T08:11:15.388Z,78.50
2022-12-04T08:13:44.545Z,78.40
2022-12-04T08:16:13.039Z,78.30
2022-12-04T08:18:41.586Z,78.30
2022-12-04T08:21:11.214Z,78.30
2022-12-04T08:23:40.071Z,78.40
2022-12-04T08:26:08.061Z,78.80
2022-12-04T08:28:36.030Z,78.70
2022-12-04T08:31:06.465Z,78.90
2022-12-04T08:33:34.401Z,78.80
2022-12-04T08:36:02.053Z,79.10
2022-12-04T08:38:29.287Z,79.20
2022-12-04T08:40:59.702Z,79.10
2022-12-04T08:43:26.997Z,79.50
2022-12-04T08:45:57.826Z,79.40
2022-12-04T08:48:27.014Z,79.40
2022-12-04T08:50:55.490Z,79.50
2022-12-04T08:53:28.266Z,79.40
2022-12-04T08:56:05.728Z,79.40
2022-12-04T08:58:33.451Z,78.90
2022-12-04T09:01:05.085Z,79.10
2022-12-04T09:03:34.460Z,79.30
2022-12-04T09:06:03.762Z,79.40
2022-12-04T09:08:31.994Z,79.20
2022-12-04T09:11:03.581Z,79.10
2022-12-04T09:13:31.103Z,79.20
2022-12-04T09:15:58.843Z,79.10
2022-12-04T09:18:26.159Z,79.00
2022-12-04T09:21:00.527Z,78.90
2022-12-04T09:23:28.476Z,79.10
2022-12-04T09:25:55.869Z,79.20
2022-12-04T09:28:23.273Z,79.30
2022-12-04T09:30:57.811Z,79.40
2022-12-04T09:33:25.571Z,79.20
2022-12-04T09:35:52.904Z,79.00
2022-12-04T09:38:21.569Z,78.90
2022-12-04T09:40:59.255Z,78.90
2022-12-04T09:43:32.374Z,78.80
2022-12-04T09:46:07.801Z,78.70
2022-12-04T09:48:38.510Z,78.80
2022-12-04T09:51:08.148Z,78.70
2022-12-04T09:53:43.944Z,78.50
2022-12-04T09:56:13.483Z,78.60
2022-12-04T09:58:46.430Z,78.70
2022-12-04T10:01:20.753Z,78.70
2022-12-04T10:03:48.632Z,79.10
2022-12-04T10:06:20.504Z,79.50
2022-12-04T10:08:57.106Z,79.30
2022-12-04T10:11:32.936Z,79.10
2022-12-04T10:14:14.215Z,79.30
2022-12-04T10:16:58.846Z,79.30
2022-12-04T10:19:31.160Z,79.40
2022-12-04T10:22:10.898Z,79.50
2022-12-04T10:24:44.011Z,79.30
2022-12-04T10:27:19.483Z,79.00
2022-12-04T10:29:50.063Z,79.00
2022-12-04T10:32:21.841Z,79.20
2022-12-04T10:34:52.479Z,79.10
2022-12-04T10:37:19.917Z,79.00
2022-12-04T10:39:53.376Z,78.90
2022-12-04T10:42:35.508Z,78.70
2022-12-04T10:45:04.520Z,78.50
2022-12-04T10:47:32.664Z,78.90
2022-12-04T10:50:02.255Z,78.50
2022-12-04T10:52:29.604Z,78.80
2022-12-04T10:54:59.949Z,79.00
2022-12-04T10:57:39.614Z,78.70
2022-12-04T11:00:26.948Z,78.60
2022-12-04T11:02:55.992Z,78.60
2022-12-04T11:05:26.383Z,78.90
2022-12-04T11:07:55.975Z,79.00
2022-12-04T11:10:29.488Z,79.10
2022-12-04T11:12:59.374Z,79.00
2022-12-04T11:15:26.806Z,78.80
2022-12-04T11:17:54.087Z,79.00
2022-12-04T11:20:24.173Z,79.00
2022-12-04T11:22:54.285Z,78.60
2022-12-04T11:25:25.096Z,78.50
2022-12-04T11:27:54.553Z,78.70
2022-12-04T11:30:28.296Z,78.70
2022-12-04T11:32:56.275Z,78.50
2022-12-04T11:35:26.062Z,78.80
2022-12-04T11:37:57.517Z,79.00
2022-12-04T11:40:27.710Z,78.80
2022-12-04T11:43:04.380Z,78.80
2022-12-04T11:45:32.516Z,79.00
2022-12-04T11:48:02.159Z,79.10
2022-12-04T11:50:39.613Z,78.70
2022-12-04T11:53:15.862Z,78.80
2022-12-04T11:55:57.171Z,78.60
2022-12-04T11:58:55.178Z,79.50
2022-12-04T12:01:35.952Z,79.60
2022-12-04T12:04:20.834Z,79.30
2022-12-04T12:07:01.101Z,79.30
2022-12-04T12:09:38.247Z,79.00
2022-12-04T12:12:10.443Z,79.10
2022-12-04T12:14:45.029Z,79.00
2022-12-04T12:17:21.717Z,78.80
2022-12-04T12:20:00.131Z,78.60
2022-12-04T12:22:53.415Z,78.60
2022-12-04T12:25:26.173Z,78.60
2022-12-04T12:28:13.387Z,78.60
2022-12-04T12:30:55.204Z,78.50
2022-12-04T12:33:26.325Z,78.50
2022-12-04T12:36:01.335Z,78.40
2022-12-04T12:38:34.763Z,78.60
2022-12-04T12:41:06.614Z,78.40
2022-12-04T12:43:38.159Z,78.60
2022-12-04T12:46:11.189Z,78.60
2022-12-04T12:48:46.537Z,78.50
2022-12-04T12:51:30.017Z,78.50
2022-12-04T12:54:09.834Z,78.40
2022-12-04T12:56:46.173Z,78.20
2022-12-04T12:59:21.908Z,78.20
2022-12-04T13:01:59.936Z,78.20
2022-12-04T13:04:33.558Z,78.40
2022-12-04T13:07:10.686Z,78.40
2022-12-04T13:09:41.738Z,78.10
2022-12-04T13:12:12.467Z,78.00
2022-12-04T13:14:44.672Z,78.60
2022-12-04T13:17:20.881Z,78.40
2022-12-04T13:19:53.724Z,78.40
2022-12-04T13:22:30.046Z,78.40
2022-12-04T13:25:16.903Z,78.20
2022-12-04T13:27:56.044Z,78.20
2022-12-04T13:30:29.734Z,77.80
2022-12-04T13:33:32.985Z,78.10
2022-12-04T13:36:28.537Z,77.90
2022-12-04T13:39:11.893Z,78.10
2022-12-04T13:41:39.793Z,78.20
2022-12-04T13:44:14.624Z,78.30
2022-12-04T13:46:52.417Z,78.30
2022-12-04T13:49:26.288Z,78.30
2022-12-04T13:51:55.559Z,78.60
2022-12-04T13:54:29.699Z,78.80
2022-12-04T13:57:09.740Z,79.00
2022-12-04T13:59:39.122Z,78.80
2022-12-04T14:02:29.527Z,78.50
2022-12-04T14:05:00.300Z,78.10
2022-12-04T14:07:31.136Z,78.50
2022-12-04T14:10:01.882Z,78.30
2022-12-04T14:12:33.273Z,78.30
2022-12-04T14:15:04.753Z,78.40
2022-12-04T14:17:35.577Z,78.20
2022-12-04T14:20:21.734Z,78.30
2022-12-04T14:22:49.074Z,78.20
2022-12-04T14:25:25.484Z,78.10
2022-12-04T14:27:53.840Z,78.70
2022-12-04T14:30:24.712Z,78.60
2022-12-04T14:32:59.217Z,78.70
2022-12-04T14:35:28.926Z,78.80
2022-12-04T14:37:59.032Z,78.90
2022-12-04T14:40:29.232Z,79.00
2022-12-04T14:42:56.544Z,78.90
2022-12-04T14:45:34.226Z,78.80
2022-12-04T14:48:29.303Z,78.90
2022-12-04T14:51:05.022Z,78.90
2022-12-04T14:53:39.712Z,78.60
2022-12-04T14:56:23.522Z,78.90
2022-12-04T14:58:51.857Z,79.20
2022-12-04T15:01:26.948Z,79.10
2022-12-04T15:04:03.486Z,79.00
2022-12-04T15:06:33.218Z,79.00
2022-12-04T15:09:20.863Z,78.90
2022-12-04T15:12:08.921Z,79.10
2022-12-04T15:14:41.186Z,79.40
2022-12-04T15:17:10.320Z,79.30
2022-12-04T15:19:39.242Z,79.60
2022-12-04T15:22:13.202Z,79.60
2022-12-04T15:24:40.523Z,79.90
2022-12-04T15:27:08.081Z,79.90
2022-12-04T15:29:38.394Z,79.80
2022-12-04T15:32:10.779Z,79.90
2022-12-04T15:34:44.250Z,79.90
2022-12-04T15:37:17.489Z,80.00
2022-12-04T15:39:45.208Z,80.20
2022-12-04T15:42:16.613Z,79.80
2022-12-04T15:44:52.212Z,79.80
2022-12-04T15:47:22.558Z,79.60
2022-12-04T15:49:52.016Z,79.50
2022-12-04T15:52:21.556Z,79.40
2022-12-04T15:54:54.735Z,79.60
2022-12-04T15:57:27.412Z,79.70
2022-12-04T15:59:55.773Z,79.50
2022-12-04T16:02:25.606Z,79.70
2022-12-04T16:04:54.391Z,79.60
2022-12-04T16:07:24.342Z,79.90
2022-12-04T16:09:58.096Z,80.10
2022-12-04T16:12:31.501Z,80.00
2022-12-04T16:14:58.908Z,80.20
2022-12-04T16:17:31.223Z,80.20
2022-12-04T16:20:00.630Z,80.10
2022-12-04T16:22:29.952Z,80.20
2022-12-04T16:24:57.517Z,79.90
2022-12-04T16:27:25.959Z,80.00
2022-12-04T16:29:53.721Z,79.90
2022-12-04T16:32:24.397Z,79.70
2022-12-04T16:34:52.117Z,80.20
2022-12-04T16:37:22.546Z,80.30
2022-12-04T16:39:49.911Z,80.20
2022-12-04T16:42:20.117Z,80.10
2022-12-04T16:44:48.106Z,80.10
2022-12-04T16:47:15.850Z,80.10
2022-12-04T16:49:44.302Z,80.00
2022-12-04T16:52:12.232Z,80.30
2022-12-04T16:54:41.151Z,80.40
2022-12-04T16:57:09.252Z,80.40
2022-12-04T16:59:37.021Z,80.50
2022-12-04T17:02:06.796Z,80.60
2022-12-04T17:04:34.187Z,81.00
2022-12-04T17:07:01.519Z,81.20
2022-12-04T17:09:28.780Z,80.90
2022-12-04T17:11:57.358Z,81.20
2022-12-04T17:14:24.633Z,80.90
2022-12-04T17:16:53.738Z,80.80
2022-12-04T17:19:21.067Z,81.00
2022-12-04T17:21:48.341Z,80.90
2022-12-04T17:24:15.690Z,80.90
2022-12-04T17:26:42.981Z,80.90
2022-12-04T17:29:11.920Z,80.90
2022-12-04T17:31:39.313Z,81.00
2022-12-04T17:34:06.600Z,81.40
2022-12-04T17:36:33.849Z,81.50
2022-12-04T17:39:04.456Z,81.50
2022-12-04T17:41:31.796Z,81.70
2022-12-04T17:44:00.082Z,81.60
2022-12-04T17:46:28.887Z,81.70
2022-12-04T17:48:57.071Z,81.40
2022-12-04T17:51:25.725Z,81.90
2022-12-04T17:53:53.541Z,81.70
2022-12-04T17:56:23.674Z,81.80
2022-12-04T17:58:51.683Z,82.10
2022-12-04T18:01:21.667Z,82.00
2022-12-04T18:03:52.384Z,81.70
2022-12-04T18:06:21.771Z,81.80
2022-12-04T18:08:50.426Z,81.90
2022-12-04T18:11:20.517Z,81.90
2022-12-04T18:13:48.076Z,81.90
2022-12-04T18:16:15.728Z,81.70
2022-12-04T18:18:46.554Z,81.70
2022-12-04T18:21:15.517Z,81.60
2022-12-04T18:23:45.992Z,81.90
2022-12-04T18:26:16.310Z,81.80
2022-12-04T18:28:44.861Z,82.00
2022-12-04T18:31:13.266Z,82.00
2022-12-04T18:33:42.334Z,82.10
2022-12-04T18:36:14.209Z,81.80
2022-12-04T18:38:43.094Z,82.00
2022-12-04T18:41:12.674Z,82.20
2022-12-04T18:43:42.033Z,82.20
2022-12-04T18:46:11.179Z,82.10
2022-12-04T18:48:39.393Z,82.10
2022-12-04T18:51:15.157Z,82.30
2022-12-04T18:53:44.098Z,82.20
2022-12-04T18:56:11.404Z,82.20
2022-12-04T18:58:38.707Z,82.40
2022-12-04T19:01:07.335Z,82.30
2022-12-04T19:03:35.059Z,82.10
2022-12-04T19:06:02.639Z,82.00
2022-12-04T19:08:33.699Z,81.90
2022-12-04T19:11:07.839Z,82.20
2022-12-04T19:13:35.755Z,82.20
2022-12-04T19:16:03.841Z,82.30
2022-12-04T19:18:31.829Z,82.60
2022-12-04T19:20:59.155Z,82.30
2022-12-04T19:23:26.535Z,82.30
2022-12-04T19:25:57.553Z,82.10
2022-12-04T19:28:30.069Z,82.00
2022-12-04T19:30:58.038Z,82.00
2022-12-04T19:33:25.523Z,82.10
2022-12-04T19:35:57.173Z,82.30
2022-12-04T19:38:24.579Z,82.40
2022-12-04T19:41:02.936Z,81.90
2022-12-04T19:43:31.687Z,82.40
2022-12-04T19:45:59.091Z,82.50
2022-12-04T19:48:26.944Z,82.10
2022-12-04T19:50:54.607Z,82.10
2022-12-04T19:53:22.003Z,82.10
2022-12-04T19:55:49.322Z,82.10
2022-12-04T19:58:16.589Z,82.10
2022-12-04T20:00:47.427Z,82.10
2022-12-04T20:03:14.791Z,82.10
2022-12-04T20:05:42.056Z,82.10
2022-12-04T20:10:35.964Z,82.30
2022-12-04T20:13:05.143Z,82.30
2022-12-04T20:15:35.217Z,82.40
2022-12-04T20:18:04.888Z,82.10
2022-12-04T20:20:32.332Z,82.20
2022-12-04T20:22:59.643Z,82.40
2022-12-04T20:25:26.961Z,82.20
2022-12-04T20:27:54.270Z,82.20
2022-12-04T20:30:22.346Z,82.10
2022-12-04T20:32:49.717Z,82.30
2022-12-04T20:35:18.544Z,82.10
2022-12-04T20:37:45.841Z,82.10
2022-12-04T20:40:13.779Z,82.30
2022-12-04T20:42:41.038Z,82.30
2022-12-04T20:45:09.248Z,82.50
2022-12-04T20:47:36.638Z,82.70
2022-12-04T20:50:04.660Z,82.50
2022-12-04T20:52:33.535Z,82.40
2022-12-04T20:55:00.801Z,82.60
2022-12-04T20:57:28.281Z,83.00
2022-12-04T20:59:55.905Z,82.90
2022-12-04T21:02:23.428Z,83.10
2022-12-04T21:04:50.784Z,82.90
2022-12-04T21:07:18.089Z,82.80
2022-12-04T21:09:46.661Z,82.90
2022-12-04T21:12:32.476Z,82.40
2022-12-04T21:15:18.113Z,82.50
2022-12-04T21:17:45.461Z,82.50
2022-12-04T21:20:13.150Z,82.30
2022-12-04T21:22:40.475Z,82.50
2022-12-04T21:25:10.227Z,82.30
2022-12-04T21:27:37.559Z,82.30
2022-12-04T21:30:06.204Z,82.50
2022-12-04T21:32:33.458Z,82.70
2022-12-04T21:35:01.615Z,82.60
2022-12-04T21:37:28.937Z,82.40
2022-12-04T21:39:56.366Z,82.30
2022-12-04T21:42:32.430Z,82.00
2022-12-04T21:45:01.169Z,82.10
2022-12-04T21:47:29.170Z,82.30
2022-12-04T21:49:56.838Z,82.40
2022-12-04T21:52:24.803Z,82.30
2022-12-04T21:54:53.660Z,82.30
2022-12-04T21:57:21.593Z,82.30
2022-12-04T21:59:51.386Z,82.30
2022-12-04T22:02:18.936Z,82.20
2022-12-04T22:04:46.456Z,82.30
2022-12-04T22:07:13.808Z,81.90
2022-12-04T22:09:41.162Z,81.90
2022-12-04T22:12:33.028Z,81.70
2022-12-04T22:14:57.011Z,82.00
2022-12-04T22:17:24.264Z,82.00
2022-12-04T22:19:51.505Z,82.20
2022-12-04T22:22:18.844Z,82.10
2022-12-04T22:24:47.703Z,82.00
2022-12-04T22:27:15.351Z,82.30
2022-12-04T22:29:50.276Z,82.20
2022-12-04T22:32:19.919Z,81.80
2022-12-04T22:34:48.565Z,82.10
2022-12-04T22:37:16.109Z,82.20
2022-12-04T22:39:43.406Z,81.80
2022-12-04T22:42:10.703Z,81.80
2022-12-04T22:44:37.966Z,82.00
2022-12-04T22:47:05.335Z,82.10
2022-12-04T22:49:33.954Z,81.80
2022-12-04T22:52:01.246Z,82.20
2022-12-04T22:54:28.564Z,82.10
2022-12-04T22:56:55.857Z,81.90
2022-12-04T22:59:23.154Z,81.80
2022-12-04T23:01:50.443Z,81.80
2022-12-04T23:04:17.906Z,81.90
2022-12-04T23:06:46.511Z,82.10
2022-12-04T23:09:15.892Z,81.80
2022-12-04T23:11:43.574Z,82.00
2022-12-04T23:14:14.242Z,81.70
2022-12-04T23:16:42.388Z,81.90
2022-12-04T23:19:12.813Z,81.80
2022-12-04T23:21:40.438Z,81.90
2022-12-04T23:24:09.630Z,81.80
2022-12-04T23:26:39.191Z,82.00
2022-12-04T23:29:23.293Z,81.80
2022-12-04T23:31:54.370Z,81.80
2022-12-04T23:34:21.698Z,82.10
2022-12-04T23:36:49.031Z,82.00
2022-12-04T23:39:17.642Z,82.20
2022-12-04T23:41:44.888Z,82.50
2022-12-04T23:44:12.115Z,82.50
2022-12-04T23:46:39.410Z,82.40
2022-12-04T23:49:06.680Z,82.40
2022-12-04T23:51:33.937Z,82.20
2022-12-04T23:54:01.154Z,82.00
2022-12-04T23:56:29.834Z,81.80
2022-12-04T23:58:58.139Z,81.90
